createdAt,value
2022-10-30T00:01:08.657Z,5.72
2022-10-30T00:03:43.395Z,5.15
2022-10-30T00:06:11.634Z,5.22
2022-10-30T00:08:39.825Z,4.45
2022-10-30T00:11:09.374Z,5.80
2022-10-30T00:13:37.568Z,5.22
2022-10-30T00:16:07.256Z,5.38
2022-10-30T00:18:36.290Z,5.00
2022-10-30T00:21:10.935Z,4.70
2022-10-30T00:23:39.734Z,5.10
2022-10-30T00:26:07.978Z,4.97
2022-10-30T00:28:35.634Z,4.60
2022-10-30T00:31:05.368Z,5.10
2022-10-30T00:33:32.848Z,6.63
2022-10-30T00:36:00.558Z,4.40
2022-10-30T00:38:29.913Z,4.90
2022-10-30T00:40:57.147Z,6.97
2022-10-30T00:43:30.535Z,5.22
2022-10-30T00:46:02.348Z,5.93
2022-10-30T00:48:29.898Z,6.10
2022-10-30T00:51:00.403Z,6.82
2022-10-30T00:53:30.069Z,5.45
2022-10-30T00:56:02.740Z,6.22
2022-10-30T00:58:34.730Z,6.25
2022-10-30T01:01:07.849Z,6.20
2022-10-30T01:03:37.191Z,7.63
2022-10-30T01:06:09.082Z,5.78
2022-10-30T01:11:06.651Z,6.10
2022-10-30T01:13:36.720Z,4.70
2022-10-30T01:16:21.552Z,5.25
2022-10-30T01:18:58.784Z,5.38
2022-10-30T01:21:44.963Z,5.32
2022-10-30T01:24:28.121Z,6.03
2022-10-30T01:27:07.183Z,5.32
2022-10-30T01:29:49.048Z,4.78
2022-10-30T01:32:33.908Z,5.13
2022-10-30T01:35:06.571Z,5.25
2022-10-30T01:40:10.588Z,5.55
2022-10-30T01:42:51.301Z,7.25
2022-10-30T01:45:32.768Z,6.53
2022-10-30T01:48:28.015Z,6.93
2022-10-30T01:51:00.027Z,6.22
2022-10-30T01:53:42.249Z,4.97
2022-10-30T01:56:20.722Z,4.85
2022-10-30T01:58:55.095Z,4.35
2022-10-30T02:01:25.598Z,5.20
2022-10-30T02:03:53.372Z,7.13
2022-10-30T02:06:21.206Z,4.40
2022-10-30T02:08:48.972Z,6.45
2022-10-30T02:11:18.594Z,6.03
2022-10-30T02:13:46.011Z,5.25
2022-10-30T02:16:13.906Z,6.00
2022-10-30T02:18:41.384Z,6.53
2022-10-30T02:21:10.941Z,6.88
2022-10-30T02:23:38.724Z,6.38
2022-10-30T02:26:06.514Z,6.68
2022-10-30T02:28:34.115Z,6.80
2022-10-30T02:31:01.811Z,6.47
2022-10-30T02:33:29.163Z,5.65
2022-10-30T02:35:56.540Z,4.60
2022-10-30T02:38:26.280Z,4.15
2022-10-30T02:40:53.782Z,4.90
2022-10-30T02:43:21.146Z,5.80
2022-10-30T02:45:51.151Z,5.93
2022-10-30T02:48:18.554Z,5.90
2022-10-30T02:50:45.844Z,7.05
2022-10-30T02:53:13.989Z,6.68
2022-10-30T02:55:42.657Z,6.53
2022-10-30T02:58:09.998Z,7.55
2022-10-30T03:00:37.931Z,7.40
2022-10-30T03:03:05.416Z,7.32
2022-10-30T03:05:32.812Z,7.05
2022-10-30T03:08:01.167Z,4.88
2022-10-30T03:10:28.784Z,5.03
2022-10-30T03:12:58.833Z,5.40
2022-10-30T03:15:26.519Z,5.97
2022-10-30T03:17:53.993Z,5.10
2022-10-30T03:20:21.556Z,4.82
2022-10-30T03:22:49.419Z,5.40
2022-10-30T03:25:16.940Z,5.28
2022-10-30T03:27:44.646Z,5.53
2022-10-30T03:30:13.953Z,6.38
2022-10-30T03:32:41.302Z,6.78
2022-10-30T03:35:09.257Z,5.97
2022-10-30T03:37:36.555Z,5.97
2022-10-30T03:40:04.439Z,6.72
2022-10-30T03:42:32.035Z,6.72
2022-10-30T03:45:02.436Z,6.10
2022-10-30T03:47:31.474Z,4.78
2022-10-30T03:49:59.232Z,4.53
2022-10-30T03:52:27.715Z,5.78
2022-10-30T03:54:54.981Z,5.90
2022-10-30T03:57:22.675Z,4.80
2022-10-30T03:59:49.961Z,5.95
2022-10-30T04:02:17.513Z,6.38
2022-10-30T04:04:48.506Z,6.22
2022-10-30T04:07:15.831Z,6.88
2022-10-30T04:09:43.236Z,6.63
2022-10-30T04:12:11.254Z,6.85
2022-10-30T04:14:38.473Z,4.60
2022-10-30T04:17:05.965Z,5.28
2022-10-30T04:19:33.790Z,4.22
2022-10-30T04:22:02.494Z,4.03
2022-10-30T04:24:29.749Z,5.65
2022-10-30T04:26:57.390Z,3.78
2022-10-30T04:29:24.641Z,5.97
2022-10-30T04:31:52.058Z,3.67
2022-10-30T04:34:19.673Z,4.22
2022-10-30T04:36:47.006Z,4.35
2022-10-30T04:39:15.841Z,4.90
2022-10-30T04:41:43.888Z,5.18
2022-10-30T04:44:11.326Z,3.97
2022-10-30T04:46:38.638Z,4.45
2022-10-30T04:49:06.524Z,4.60
2022-10-30T04:51:33.981Z,3.75
2022-10-30T04:54:01.377Z,4.13
2022-10-30T04:56:30.662Z,3.53
2022-10-30T04:58:57.956Z,3.78
2022-10-30T05:01:25.839Z,5.75
2022-10-30T05:03:54.940Z,5.13
2022-10-30T05:06:24.760Z,6.30
2022-10-30T05:08:52.571Z,7.10
2022-10-30T05:11:20.284Z,6.70
2022-10-30T05:13:49.050Z,4.03
2022-10-30T05:16:16.760Z,3.90
2022-10-30T05:18:44.384Z,3.95
2022-10-30T05:21:12.814Z,4.18
2022-10-30T05:28:53.759Z,3.83
2022-10-30T05:31:21.258Z,5.30
2022-10-30T05:33:49.013Z,4.57
2022-10-30T05:36:16.258Z,5.70
2022-10-30T05:38:44.119Z,5.90
2022-10-30T05:41:11.788Z,4.88
2022-10-30T05:43:39.691Z,5.78
2022-10-30T05:46:08.786Z,6.68
2022-10-30T05:48:36.353Z,5.05
2022-10-30T05:51:04.210Z,5.13
2022-10-30T05:53:31.563Z,6.65
2022-10-30T05:55:59.545Z,4.50
2022-10-30T05:58:27.786Z,4.28
2022-10-30T06:00:55.351Z,6.15
2022-10-30T06:03:24.841Z,4.80
2022-10-30T06:05:52.222Z,4.70
2022-10-30T06:08:20.326Z,5.45
2022-10-30T06:10:47.707Z,5.68
2022-10-30T06:13:15.435Z,8.02
2022-10-30T06:15:43.593Z,7.43
2022-10-30T06:18:11.237Z,5.18
2022-10-30T06:20:40.223Z,5.60
2022-10-30T06:23:10.098Z,5.43
2022-10-30T06:25:41.154Z,5.95
2022-10-30T06:28:10.468Z,5.50
2022-10-30T06:30:37.748Z,5.43
2022-10-30T06:33:06.244Z,6.60
2022-10-30T06:35:34.187Z,6.97
2022-10-30T06:38:02.910Z,6.07
2022-10-30T06:40:30.868Z,6.53
2022-10-30T06:42:59.256Z,8.18
2022-10-30T06:45:27.039Z,8.75
2022-10-30T06:47:54.575Z,9.45
2022-10-30T06:50:22.518Z,8.50
2022-10-30T06:52:50.073Z,9.23
2022-10-30T06:55:19.015Z,8.75
2022-10-30T06:57:46.801Z,10.05
2022-10-30T07:00:14.805Z,10.50
2022-10-30T07:02:42.714Z,9.70
2022-10-30T07:05:10.557Z,9.77
2022-10-30T07:07:38.173Z,10.02
2022-10-30T07:10:06.568Z,11.05
2022-10-30T07:12:36.186Z,10.45
2022-10-30T07:15:03.863Z,11.07
2022-10-30T07:17:31.294Z,10.90
2022-10-30T07:19:59.009Z,10.43
2022-10-30T07:22:26.562Z,9.00
2022-10-30T07:24:53.962Z,9.32
2022-10-30T07:27:21.578Z,8.23
2022-10-30T07:29:50.402Z,8.52
2022-10-30T07:32:17.850Z,8.77
2022-10-30T07:34:45.521Z,9.10
2022-10-30T07:37:12.914Z,8.60
2022-10-30T07:39:40.684Z,8.75
2022-10-30T07:42:08.541Z,9.07
2022-10-30T07:44:37.569Z,8.13
2022-10-30T07:47:06.785Z,7.93
2022-10-30T07:49:34.698Z,7.75
2022-10-30T07:52:02.121Z,8.73
2022-10-30T07:54:29.975Z,8.05
2022-10-30T07:56:57.342Z,6.97
2022-10-30T07:59:28.480Z,7.53
2022-10-30T08:01:56.968Z,6.85
2022-10-30T08:04:25.823Z,6.65
2022-10-30T08:06:53.941Z,7.07
2022-10-30T08:09:21.616Z,7.45
2022-10-30T08:11:49.759Z,5.88
2022-10-30T08:14:17.066Z,7.82
2022-10-30T08:16:44.868Z,6.50
2022-10-30T08:19:12.254Z,7.07
2022-10-30T08:21:41.662Z,6.45
2022-10-30T08:24:09.465Z,6.70
2022-10-30T08:26:37.352Z,6.13
2022-10-30T08:29:04.866Z,6.55
2022-10-30T08:31:32.786Z,5.70
2022-10-30T08:34:00.181Z,6.78
2022-10-30T08:36:27.668Z,6.05
2022-10-30T08:38:56.862Z,6.18
2022-10-30T08:41:24.544Z,6.30
2022-10-30T08:43:52.510Z,5.78
2022-10-30T08:46:19.870Z,6.45
2022-10-30T08:48:47.588Z,7.53
2022-10-30T08:51:15.035Z,6.28
2022-10-30T08:53:42.979Z,5.57
2022-10-30T08:56:11.923Z,5.70
2022-10-30T08:58:39.874Z,5.22
2022-10-30T09:01:07.309Z,5.97
2022-10-30T09:03:35.515Z,4.78
2022-10-30T09:06:03.129Z,5.78
2022-10-30T09:08:30.750Z,5.53
2022-10-30T09:10:58.925Z,5.50
2022-10-30T09:13:27.967Z,5.40
2022-10-30T09:15:59.777Z,4.88
2022-10-30T09:18:27.951Z,5.78
2022-10-30T09:20:55.401Z,4.78
2022-10-30T09:23:23.060Z,5.30
2022-10-30T09:25:50.951Z,5.60
2022-10-30T09:28:18.492Z,5.60
2022-10-30T09:30:47.385Z,5.97
2022-10-30T09:33:15.131Z,5.63
2022-10-30T09:35:42.772Z,4.75
2022-10-30T09:38:10.228Z,5.57
2022-10-30T09:40:53.449Z,4.68
2022-10-30T09:43:32.631Z,4.40
2022-10-30T09:46:20.693Z,4.93
2022-10-30T09:49:02.456Z,5.60
2022-10-30T09:51:55.474Z,4.28
2022-10-30T09:54:32.884Z,4.78
2022-10-30T09:57:05.850Z,5.03
2022-10-30T09:59:45.498Z,4.65
2022-10-30T10:02:31.480Z,4.88
2022-10-30T10:05:04.242Z,5.15
2022-10-30T10:07:35.459Z,4.38
2022-10-30T10:10:08.229Z,4.70
2022-10-30T10:12:43.671Z,4.45
2022-10-30T10:15:16.874Z,3.92
2022-10-30T10:17:46.615Z,4.30
2022-10-30T10:20:27.117Z,4.10
2022-10-30T10:22:57.348Z,4.38
2022-10-30T10:25:27.397Z,3.80
2022-10-30T10:28:07.587Z,4.07
2022-10-30T10:30:44.240Z,4.38
2022-10-30T10:33:46.367Z,3.50
2022-10-30T10:36:25.144Z,3.40
2022-10-30T10:39:14.790Z,3.50
2022-10-30T10:41:58.174Z,3.88
2022-10-30T10:44:37.981Z,3.97
2022-10-30T10:47:27.197Z,3.38
2022-10-30T10:50:14.421Z,4.03
2022-10-30T10:52:47.628Z,3.80
2022-10-30T10:55:19.016Z,3.63
2022-10-30T10:57:48.265Z,3.15
2022-10-30T11:00:18.598Z,3.63
2022-10-30T11:02:54.815Z,3.47
2022-10-30T11:05:32.674Z,3.22
2022-10-30T11:08:10.942Z,3.47
2022-10-30T11:10:41.626Z,2.92
2022-10-30T11:13:11.886Z,3.20
2022-10-30T11:15:55.143Z,3.22
2022-10-30T11:18:22.625Z,3.20
2022-10-30T11:20:57.775Z,3.40
2022-10-30T11:23:33.386Z,4.20
2022-10-30T11:26:02.448Z,3.30
2022-10-30T11:28:40.647Z,3.80
2022-10-30T11:31:19.568Z,3.90
2022-10-30T11:33:47.781Z,3.70
2022-10-30T11:36:19.126Z,2.95
2022-10-30T11:38:46.582Z,3.53
2022-10-30T11:41:15.348Z,3.35
2022-10-30T11:43:47.199Z,3.15
2022-10-30T11:46:22.590Z,3.55
2022-10-30T11:48:50.102Z,3.67
2022-10-30T11:51:32.345Z,3.70
2022-10-30T11:54:01.172Z,3.53
2022-10-30T11:56:30.744Z,3.60
2022-10-30T11:59:02.302Z,3.22
2022-10-30T12:01:32.201Z,3.42
2022-10-30T12:04:14.760Z,3.00
2022-10-30T12:06:44.224Z,3.47
2022-10-30T12:09:13.846Z,3.10
2022-10-30T12:11:43.654Z,3.10
2022-10-30T12:14:19.455Z,2.80
2022-10-30T12:16:48.742Z,3.10
2022-10-30T12:19:18.342Z,3.58
2022-10-30T12:21:49.752Z,3.13
2022-10-30T12:24:21.509Z,3.25
2022-10-30T12:26:51.423Z,3.40
2022-10-30T12:29:21.543Z,3.55
2022-10-30T12:31:55.837Z,3.85
2022-10-30T12:34:38.948Z,3.38
2022-10-30T12:37:13.222Z,3.80
2022-10-30T12:39:50.263Z,3.03
2022-10-30T12:42:18.887Z,4.05
2022-10-30T12:44:52.094Z,3.60
2022-10-30T12:47:27.268Z,3.00
2022-10-30T12:50:00.998Z,2.78
2022-10-30T12:52:36.086Z,3.40
2022-10-30T12:55:13.476Z,2.95
2022-10-30T12:57:46.551Z,2.95
2022-10-30T13:00:16.751Z,2.80
2022-10-30T13:02:54.019Z,3.13
2022-10-30T13:05:34.033Z,3.30
2022-10-30T13:08:13.093Z,3.60
2022-10-30T13:10:44.542Z,3.30
2022-10-30T13:15:47.200Z,2.70
2022-10-30T13:18:17.593Z,2.80
2022-10-30T13:20:58.920Z,3.38
2022-10-30T13:23:35.635Z,3.10
2022-10-30T13:26:15.841Z,2.80
2022-10-30T13:28:52.440Z,2.78
2022-10-30T13:31:43.237Z,3.28
2022-10-30T13:34:26.311Z,2.63
2022-10-30T13:36:58.845Z,2.90
2022-10-30T13:39:34.664Z,3.50
2022-10-30T13:42:18.217Z,3.20
2022-10-30T13:44:55.888Z,3.08
2022-10-30T13:47:41.130Z,2.90
2022-10-30T13:50:34.202Z,2.80
2022-10-30T13:53:05.452Z,3.08
2022-10-30T13:55:50.009Z,2.83
2022-10-30T13:58:25.708Z,3.30
2022-10-30T14:01:01.617Z,2.78
2022-10-30T14:03:39.276Z,2.80
2022-10-30T14:06:14.378Z,2.75
2022-10-30T14:08:49.147Z,3.13
2022-10-30T14:11:18.423Z,3.33
2022-10-30T14:13:50.298Z,2.95
2022-10-30T14:17:03.616Z,2.95
2022-10-30T14:19:31.083Z,3.55
2022-10-30T14:21:58.835Z,3.15
2022-10-30T14:24:29.599Z,2.78
2022-10-30T14:27:11.418Z,3.42
2022-10-30T14:29:49.955Z,2.95
2022-10-30T14:32:41.566Z,3.78
2022-10-30T14:35:32.846Z,3.30
2022-10-30T14:38:16.590Z,3.40
2022-10-30T14:40:56.115Z,3.38
2022-10-30T14:43:31.269Z,4.82
2022-10-30T14:46:01.625Z,4.45
2022-10-30T14:48:41.585Z,4.22
2022-10-30T14:51:16.642Z,3.85
2022-10-30T14:53:56.549Z,3.67
2022-10-30T14:56:34.501Z,3.55
2022-10-30T15:02:00.190Z,3.13
2022-10-30T15:04:40.656Z,3.47
2022-10-30T15:07:17.718Z,3.65
2022-10-30T15:09:58.152Z,3.65
2022-10-30T15:12:40.942Z,3.83
2022-10-30T15:15:14.592Z,3.33
2022-10-30T15:17:44.513Z,4.30
2022-10-30T15:20:18.354Z,4.05
2022-10-30T15:22:49.560Z,4.05
2022-10-30T15:25:19.464Z,3.90
2022-10-30T15:27:50.742Z,3.40
2022-10-30T15:30:22.113Z,3.60
2022-10-30T15:32:50.047Z,3.80
2022-10-30T15:35:19.304Z,3.60
2022-10-30T15:38:01.484Z,3.00
2022-10-30T15:40:30.236Z,3.00
2022-10-30T15:43:01.041Z,3.85
2022-10-30T15:45:33.965Z,4.10
2022-10-30T15:48:08.305Z,3.58
2022-10-30T15:50:38.583Z,3.42
2022-10-30T15:53:07.495Z,3.65
2022-10-30T15:55:35.691Z,3.58
2022-10-30T15:58:05.457Z,4.68
2022-10-30T16:00:36.356Z,4.63
2022-10-30T16:03:06.406Z,3.63
2022-10-30T16:05:35.028Z,3.50
2022-10-30T16:08:04.124Z,3.83
2022-10-30T16:10:34.714Z,4.07
2022-10-30T16:13:04.006Z,3.40
2022-10-30T16:15:38.736Z,2.85
2022-10-30T16:18:14.700Z,3.85
2022-10-30T16:20:45.667Z,3.35
2022-10-30T16:23:14.294Z,4.28
2022-10-30T16:25:47.008Z,3.70
2022-10-30T16:28:27.382Z,3.72
2022-10-30T16:30:59.001Z,2.88
2022-10-30T16:33:28.369Z,3.63
2022-10-30T16:35:57.085Z,4.13
2022-10-30T16:38:27.870Z,5.05
2022-10-30T16:40:55.946Z,5.63
2022-10-30T16:43:27.235Z,4.20
2022-10-30T16:45:57.502Z,4.47
2022-10-30T16:48:34.503Z,4.88
2022-10-30T16:51:04.013Z,4.97
2022-10-30T16:53:32.220Z,5.38
2022-10-30T16:56:00.261Z,4.65
2022-10-30T16:58:30.622Z,5.38
2022-10-30T17:01:04.618Z,4.43
2022-10-30T17:03:37.379Z,5.95
2022-10-30T17:06:07.491Z,4.63
2022-10-30T17:08:40.885Z,5.47
2022-10-30T17:11:17.781Z,7.03
2022-10-30T17:13:59.267Z,7.43
2022-10-30T17:16:30.091Z,9.02
2022-10-30T17:18:59.674Z,7.38
2022-10-30T17:21:30.587Z,9.10
2022-10-30T17:24:00.089Z,7.68
2022-10-30T17:26:29.649Z,5.65
2022-10-30T17:28:56.962Z,6.28
2022-10-30T17:31:30.155Z,6.65
2022-10-30T17:34:11.720Z,5.80
2022-10-30T17:36:39.119Z,5.72
2022-10-30T17:39:07.145Z,5.75
2022-10-30T17:41:35.543Z,7.22
2022-10-30T17:44:03.855Z,5.90
2022-10-30T17:46:33.002Z,6.30
2022-10-30T17:49:03.371Z,4.95
2022-10-30T17:51:30.783Z,6.70
2022-10-30T17:53:58.191Z,5.47
2022-10-30T17:56:28.622Z,5.88
2022-10-30T17:58:56.236Z,5.70
2022-10-30T18:01:26.278Z,5.65
2022-10-30T18:03:56.170Z,4.75
2022-10-30T18:06:27.860Z,8.38
2022-10-30T18:08:55.593Z,4.35
2022-10-30T18:11:24.623Z,7.20
2022-10-30T18:13:53.020Z,6.38
2022-10-30T18:16:20.955Z,7.63
2022-10-30T18:18:48.893Z,8.30
2022-10-30T18:21:19.908Z,7.80
2022-10-30T18:23:52.699Z,6.15
2022-10-30T18:26:22.066Z,7.43
2022-10-30T18:28:50.492Z,6.90
2022-10-30T18:31:20.232Z,7.00
2022-10-30T18:33:48.307Z,7.00
2022-10-30T18:36:20.367Z,8.60
2022-10-30T18:38:48.843Z,8.60
2022-10-30T18:41:18.673Z,7.20
2022-10-30T18:43:47.343Z,6.93
2022-10-30T18:46:15.623Z,5.47
2022-10-30T18:48:43.628Z,8.85
2022-10-30T18:51:16.429Z,5.97
2022-10-30T18:53:46.356Z,6.10
2022-10-30T18:56:14.040Z,6.90
2022-10-30T18:58:42.037Z,6.18
2022-10-30T19:01:12.313Z,6.20
2022-10-30T19:03:40.834Z,6.63
2022-10-30T19:06:11.888Z,7.05
2022-10-30T19:08:40.115Z,6.55
2022-10-30T19:11:12.156Z,8.30
2022-10-30T19:13:40.185Z,6.70
2022-10-30T19:16:11.501Z,6.80
2022-10-30T19:18:38.865Z,7.40
2022-10-30T19:21:10.302Z,7.45
2022-10-30T19:23:42.359Z,7.68
2022-10-30T19:28:39.300Z,8.05
2022-10-30T19:31:08.306Z,8.07
2022-10-30T19:33:35.794Z,7.72
2022-10-30T19:36:04.866Z,7.03
2022-10-30T19:38:34.331Z,6.68
2022-10-30T19:41:02.646Z,7.28
2022-10-30T19:43:31.630Z,7.45
2022-10-30T19:45:59.653Z,5.47
2022-10-30T19:48:56.205Z,6.32
2022-10-30T19:51:15.034Z,7.35
2022-10-30T19:53:42.899Z,7.55
2022-10-30T19:56:12.930Z,7.43
2022-10-30T19:58:41.810Z,7.55
2022-10-30T20:01:11.438Z,7.25
2022-10-30T20:03:38.955Z,7.15
2022-10-30T20:06:07.714Z,7.35
2022-10-30T20:08:35.392Z,6.78
2022-10-30T20:11:03.688Z,6.32
2022-10-30T20:13:31.116Z,6.82
2022-10-30T20:16:01.345Z,7.28
2022-10-30T20:18:31.619Z,7.22
2022-10-30T20:21:00.646Z,6.78
2022-10-30T20:23:28.769Z,8.00
2022-10-30T20:25:59.899Z,7.68
2022-10-30T20:28:31.267Z,8.55
2022-10-30T20:31:00.967Z,6.15
2022-10-30T20:33:29.205Z,7.50
2022-10-30T20:35:57.410Z,7.78
2022-10-30T20:38:27.214Z,8.85
2022-10-30T20:40:55.281Z,6.40
2022-10-30T20:43:30.299Z,7.95
2022-10-30T20:46:02.530Z,7.07
2022-10-30T20:48:30.118Z,5.82
2022-10-30T20:51:01.079Z,8.63
2022-10-30T20:53:29.326Z,9.43
2022-10-30T20:55:57.514Z,8.35
2022-10-30T20:58:25.004Z,8.70
2022-10-30T21:00:54.436Z,10.50
2022-10-30T21:03:24.070Z,8.82
2022-10-30T21:05:56.056Z,9.20
2022-10-30T21:08:23.832Z,9.90
2022-10-30T21:10:51.330Z,8.77
2022-10-30T21:13:18.644Z,7.78
2022-10-30T21:15:46.756Z,8.27
2022-10-30T21:18:14.443Z,5.88
2022-10-30T21:20:43.446Z,6.93
2022-10-30T21:23:13.072Z,8.73
2022-10-30T21:25:40.716Z,6.60
2022-10-30T21:28:08.180Z,7.43
2022-10-30T21:30:36.296Z,7.30
2022-10-30T21:33:04.263Z,7.95
2022-10-30T21:35:31.886Z,9.23
2022-10-30T21:38:01.997Z,9.25
2022-10-30T21:40:29.525Z,8.27
2022-10-30T21:43:01.300Z,5.72
2022-10-30T21:45:32.358Z,6.90
2022-10-30T21:47:59.951Z,5.47
2022-10-30T21:50:27.537Z,6.75
2022-10-30T21:52:55.161Z,8.45
2022-10-30T21:55:24.038Z,7.75
2022-10-30T21:57:51.881Z,6.93
2022-10-30T22:00:19.683Z,6.35
2022-10-30T22:02:47.486Z,6.00
2022-10-30T22:05:15.291Z,7.45
2022-10-30T22:07:43.903Z,8.13
2022-10-30T22:10:11.798Z,8.90
2022-10-30T22:12:40.771Z,6.55
2022-10-30T22:15:09.540Z,5.40
2022-10-30T22:17:36.847Z,5.20
2022-10-30T22:20:04.425Z,6.90
2022-10-30T22:22:32.656Z,5.28
2022-10-30T22:25:00.175Z,4.80
2022-10-30T22:27:29.619Z,4.82
2022-10-30T22:29:58.737Z,9.02
2022-10-30T22:32:26.368Z,8.88
2022-10-30T22:34:54.584Z,9.60
2022-10-30T22:37:21.886Z,8.27
2022-10-30T22:39:49.293Z,8.20
2022-10-30T22:42:16.873Z,7.68
2022-10-30T22:44:44.811Z,8.77
2022-10-30T22:47:13.547Z,10.15
2022-10-30T22:49:41.478Z,7.70
2022-10-30T22:52:08.873Z,8.43
2022-10-30T22:54:36.365Z,9.90
2022-10-30T22:57:04.144Z,11.85
2022-10-30T22:59:31.380Z,8.18
2022-10-30T23:01:59.104Z,7.50
2022-10-30T23:04:28.375Z,9.00
2022-10-30T23:06:55.920Z,9.90
2022-10-30T23:09:24.275Z,7.50
2022-10-30T23:11:51.612Z,6.55
2022-10-30T23:14:19.683Z,6.07
2022-10-30T23:16:47.038Z,5.55
2022-10-30T23:19:14.746Z,5.93
2022-10-30T23:21:43.661Z,6.40
2022-10-30T23:24:12.207Z,7.18
2022-10-30T23:26:39.847Z,9.10
2022-10-30T23:29:07.965Z,8.50
2022-10-30T23:31:37.865Z,8.25
2022-10-30T23:34:08.714Z,8.73
2022-10-30T23:36:36.957Z,5.90
2022-10-30T23:39:08.007Z,5.32
2022-10-30T23:41:35.447Z,7.65
2022-10-30T23:44:06.134Z,7.90
2022-10-30T23:46:35.128Z,6.85
2022-10-30T23:49:04.005Z,6.00
2022-10-30T23:51:31.438Z,6.15
2022-10-30T23:53:59.328Z,6.60
2022-10-30T23:56:28.366Z,5.55
2022-10-30T23:58:56.604Z,6.32
